LEBA/ODB METAR and TAF weather

Enter ICAO airport designator
Station Type Date Time Source
LEBA METAR 2021/09/25 12:30 UTC NOAA

LEBA 251230Z 24007KT 190V290 9999 SCT030 24/14 Q1019


Station Type Date Time Source
LEBA Decoded METAR 2021/09/25 12:30 UTC NOAA

Cordoba / Aeropuerto, Spain (LEBA) 37-51N 004-51W 92M
Sep 25, 2021 - 08:30 AM EDT / 2021.09.25 1230 UTC
Wind: from the WSW (240 degrees) at 8 MPH (7 KT) (direction variable):0
Visibility: greater than 7 mile(s):0
Sky conditions: partly cloudy
Temperature: 75 F (24 C)
Dew Point: 57 F (14 C)
Relative Humidity: 53%
Pressure (altimeter): 30.09 in. Hg (1019 hPa)
ob: LEBA 251230Z 24007KT 190V290 9999 SCT030 24/14 Q1019
cycle: 12

Station Type Date Time Source
LEBA TAF 2021/09/25 09:27 UTC NOAA

TAF TAF LEBA 250800Z 2509/2609 VRB02KT 9999 FEW020 BKN035 TX26/2515Z TN14/2603Z
BECMG 2510/2513 26010KT
BECMG 2518/2521 VRB02KT

Example: see airport list